sensor_id;sensor_type;location;lat;lon;timestamp;P1;durP1;ratioP1;P2;durP2;ratioP2
3343;SDS011;1685;53.104;8.228;2023-07-09T00:01:47;10.27;;;7.00;;
3343;SDS011;1685;53.104;8.228;2023-07-09T00:04:15;9.70;;;7.37;;
3343;SDS011;1685;53.104;8.228;2023-07-09T00:06:42;8.37;;;7.57;;
3343;SDS011;1685;53.104;8.228;2023-07-09T00:09:11;10.07;;;7.90;;
3343;SDS011;1685;53.104;8.228;2023-07-09T00:11:40;9.23;;;7.90;;
3343;SDS011;1685;53.104;8.228;2023-07-09T00:14:07;9.20;;;7.97;;
3343;SDS011;1685;53.104;8.228;2023-07-09T00:16:34;11.53;;;8.27;;
3343;SDS011;1685;53.104;8.228;2023-07-09T00:19:04;9.43;;;8.40;;
3343;SDS011;1685;53.104;8.228;2023-07-09T00:21:31;7.43;;;6.63;;
3343;SDS011;1685;53.104;8.228;2023-07-09T00:23:59;10.60;;;7.90;;
3343;SDS011;1685;53.104;8.228;2023-07-09T00:26:29;11.00;;;7.40;;
3343;SDS011;1685;53.104;8.228;2023-07-09T00:28:57;9.90;;;7.37;;
3343;SDS011;1685;53.104;8.228;2023-07-09T00:31:24;8.67;;;7.80;;
3343;SDS011;1685;53.104;8.228;2023-07-09T00:33:51;8.47;;;7.67;;
3343;SDS011;1685;53.104;8.228;2023-07-09T00:36:27;7.70;;;6.90;;
3343;SDS011;1685;53.104;8.228;2023-07-09T00:38:56;9.27;;;7.90;;
3343;SDS011;1685;53.104;8.228;2023-07-09T00:41:24;8.23;;;6.97;;
3343;SDS011;1685;53.104;8.228;2023-07-09T00:43:53;11.77;;;8.43;;
3343;SDS011;1685;53.104;8.228;2023-07-09T00:49:27;12.50;;;8.27;;
3343;SDS011;1685;53.104;8.228;2023-07-09T00:51:58;8.73;;;7.73;;
3343;SDS011;1685;53.104;8.228;2023-07-09T00:54:29;16.43;;;7.43;;
3343;SDS011;1685;53.104;8.228;2023-07-09T00:57:02;11.20;;;8.30;;
3343;SDS011;1685;53.104;8.228;2023-07-09T00:59:32;9.40;;;7.93;;
3343;SDS011;1685;53.104;8.228;2023-07-09T01:02:00;9.77;;;8.07;;
3343;SDS011;1685;53.104;8.228;2023-07-09T01:04:27;10.97;;;8.30;;
3343;SDS011;1685;53.104;8.228;2023-07-09T01:06:55;8.63;;;7.83;;
3343;SDS011;1685;53.104;8.228;2023-07-09T01:09:24;8.90;;;8.00;;
3343;SDS011;1685;53.104;8.228;2023-07-09T01:11:51;8.80;;;8.00;;
3343;SDS011;1685;53.104;8.228;2023-07-09T01:14:26;9.30;;;8.43;;
3343;SDS011;1685;53.104;8.228;2023-07-09T01:16:55;8.87;;;7.97;;
3343;SDS011;1685;53.104;8.228;2023-07-09T01:19:27;10.17;;;8.03;;
3343;SDS011;1685;53.104;8.228;2023-07-09T01:21:57;9.67;;;8.40;;
3343;SDS011;1685;53.104;8.228;2023-07-09T01:27:15;9.93;;;8.10;;
3343;SDS011;1685;53.104;8.228;2023-07-09T01:29:43;12.43;;;8.60;;
3343;SDS011;1685;53.104;8.228;2023-07-09T01:32:14;9.27;;;8.10;;
3343;SDS011;1685;53.104;8.228;2023-07-09T01:34:42;9.53;;;8.63;;
3343;SDS011;1685;53.104;8.228;2023-07-09T01:37:10;11.47;;;8.87;;
3343;SDS011;1685;53.104;8.228;2023-07-09T01:39:37;10.23;;;9.17;;
3343;SDS011;1685;53.104;8.228;2023-07-09T01:42:05;14.03;;;8.57;;
3343;SDS011;1685;53.104;8.228;2023-07-09T01:44:33;8.87;;;7.90;;
3343;SDS011;1685;53.104;8.228;2023-07-09T01:47:00;8.93;;;8.10;;
3343;SDS011;1685;53.104;8.228;2023-07-09T01:49:29;9.67;;;8.50;;
3343;SDS011;1685;53.104;8.228;2023-07-09T01:51:57;9.30;;;8.30;;
3343;SDS011;1685;53.104;8.228;2023-07-09T01:54:27;9.20;;;8.40;;
3343;SDS011;1685;53.104;8.228;2023-07-09T01:57:00;9.43;;;8.43;;
3343;SDS011;1685;53.104;8.228;2023-07-09T01:59:40;9.30;;;8.40;;
3343;SDS011;1685;53.104;8.228;2023-07-09T02:02:09;10.00;;;8.70;;
3343;SDS011;1685;53.104;8.228;2023-07-09T02:04:40;11.70;;;9.70;;
3343;SDS011;1685;53.104;8.228;2023-07-09T02:07:09;10.40;;;9.00;;
3343;SDS011;1685;53.104;8.228;2023-07-09T02:09:37;12.17;;;8.93;;
3343;SDS011;1685;53.104;8.228;2023-07-09T02:12:04;10.50;;;8.17;;
3343;SDS011;1685;53.104;8.228;2023-07-09T02:14:31;14.30;;;9.60;;
3343;SDS011;1685;53.104;8.228;2023-07-09T02:16:58;20.73;;;8.90;;
3343;SDS011;1685;53.104;8.228;2023-07-09T02:19:25;9.20;;;8.33;;
3343;SDS011;1685;53.104;8.228;2023-07-09T02:21:52;10.97;;;9.03;;
3343;SDS011;1685;53.104;8.228;2023-07-09T02:24:19;10.07;;;8.80;;
3343;SDS011;1685;53.104;8.228;2023-07-09T02:26:50;9.17;;;8.27;;
3343;SDS011;1685;53.104;8.228;2023-07-09T02:29:17;10.50;;;8.90;;
3343;SDS011;1685;53.104;8.228;2023-07-09T02:31:44;9.83;;;8.80;;
3343;SDS011;1685;53.104;8.228;2023-07-09T02:34:12;10.33;;;8.50;;
3343;SDS011;1685;53.104;8.228;2023-07-09T02:36:39;9.40;;;8.60;;
3343;SDS011;1685;53.104;8.228;2023-07-09T02:39:08;9.30;;;8.30;;
3343;SDS011;1685;53.104;8.228;2023-07-09T02:41:35;10.23;;;8.80;;
3343;SDS011;1685;53.104;8.228;2023-07-09T02:44:03;16.70;;;9.10;;
3343;SDS011;1685;53.104;8.228;2023-07-09T02:46:30;9.90;;;8.67;;
3343;SDS011;1685;53.104;8.228;2023-07-09T02:48:57;10.90;;;8.23;;
3343;SDS011;1685;53.104;8.228;2023-07-09T02:51:24;10.00;;;9.00;;
3343;SDS011;1685;53.104;8.228;2023-07-09T02:53:53;10.73;;;9.20;;
3343;SDS011;1685;53.104;8.228;2023-07-09T02:56:20;11.03;;;9.00;;
3343;SDS011;1685;53.104;8.228;2023-07-09T02:58:47;10.67;;;9.13;;
3343;SDS011;1685;53.104;8.228;2023-07-09T03:01:15;13.00;;;9.70;;
3343;SDS011;1685;53.104;8.228;2023-07-09T03:03:42;10.50;;;9.50;;
3343;SDS011;1685;53.104;8.228;2023-07-09T03:06:09;11.73;;;9.70;;
3343;SDS011;1685;53.104;8.228;2023-07-09T03:08:36;11.33;;;9.97;;
3343;SDS011;1685;53.104;8.228;2023-07-09T03:11:10;10.20;;;9.20;;
3343;SDS011;1685;53.104;8.228;2023-07-09T03:13:37;13.30;;;11.07;;
3343;SDS011;1685;53.104;8.228;2023-07-09T03:16:05;10.40;;;9.40;;
3343;SDS011;1685;53.104;8.228;2023-07-09T03:18:33;12.73;;;9.10;;
3343;SDS011;1685;53.104;8.228;2023-07-09T03:21:00;13.07;;;10.23;;
3343;SDS011;1685;53.104;8.228;2023-07-09T03:23:27;11.00;;;9.90;;
3343;SDS011;1685;53.104;8.228;2023-07-09T03:25:54;14.83;;;9.40;;
3343;SDS011;1685;53.104;8.228;2023-07-09T03:28:22;12.33;;;9.60;;
3343;SDS011;1685;53.104;8.228;2023-07-09T03:30:52;12.07;;;9.93;;
3343;SDS011;1685;53.104;8.228;2023-07-09T03:33:20;11.00;;;9.83;;
3343;SDS011;1685;53.104;8.228;2023-07-09T03:35:49;12.70;;;9.30;;
3343;SDS011;1685;53.104;8.228;2023-07-09T03:38:16;11.50;;;10.30;;
3343;SDS011;1685;53.104;8.228;2023-07-09T03:40:43;10.93;;;9.67;;
3343;SDS011;1685;53.104;8.228;2023-07-09T03:43:10;10.63;;;9.63;;
3343;SDS011;1685;53.104;8.228;2023-07-09T03:45:37;11.30;;;9.97;;
3343;SDS011;1685;53.104;8.228;2023-07-09T03:48:05;12.40;;;9.90;;
3343;SDS011;1685;53.104;8.228;2023-07-09T03:50:32;11.57;;;10.47;;
3343;SDS011;1685;53.104;8.228;2023-07-09T03:53:00;11.53;;;10.33;;
3343;SDS011;1685;53.104;8.228;2023-07-09T03:55:27;12.30;;;9.10;;
3343;SDS011;1685;53.104;8.228;2023-07-09T03:57:55;10.53;;;9.43;;
3343;SDS011;1685;53.104;8.228;2023-07-09T04:00:23;11.83;;;9.30;;
3343;SDS011;1685;53.104;8.228;2023-07-09T04:02:50;14.60;;;9.47;;
3343;SDS011;1685;53.104;8.228;2023-07-09T04:05:18;12.40;;;9.87;;
3343;SDS011;1685;53.104;8.228;2023-07-09T04:07:45;11.47;;;10.47;;
3343;SDS011;1685;53.104;8.228;2023-07-09T04:10:14;12.30;;;11.00;;
3343;SDS011;1685;53.104;8.228;2023-07-09T04:12:41;13.07;;;9.97;;
3343;SDS011;1685;53.104;8.228;2023-07-09T04:15:08;11.33;;;10.23;;
3343;SDS011;1685;53.104;8.228;2023-07-09T04:17:38;11.53;;;10.00;;
3343;SDS011;1685;53.104;8.228;2023-07-09T04:20:05;10.37;;;9.27;;
3343;SDS011;1685;53.104;8.228;2023-07-09T04:22:34;11.70;;;10.50;;
3343;SDS011;1685;53.104;8.228;2023-07-09T04:25:02;11.83;;;10.23;;
3343;SDS011;1685;53.104;8.228;2023-07-09T04:27:31;13.73;;;10.33;;
3343;SDS011;1685;53.104;8.228;2023-07-09T04:29:59;11.27;;;10.17;;
3343;SDS011;1685;53.104;8.228;2023-07-09T04:32:26;11.70;;;10.53;;
3343;SDS011;1685;53.104;8.228;2023-07-09T04:34:53;11.67;;;9.80;;
3343;SDS011;1685;53.104;8.228;2023-07-09T04:37:20;13.50;;;10.40;;
3343;SDS011;1685;53.104;8.228;2023-07-09T04:39:47;11.27;;;10.17;;
3343;SDS011;1685;53.104;8.228;2023-07-09T04:42:15;14.33;;;9.47;;
3343;SDS011;1685;53.104;8.228;2023-07-09T04:44:44;14.37;;;11.00;;
3343;SDS011;1685;53.104;8.228;2023-07-09T04:47:11;11.97;;;9.80;;
3343;SDS011;1685;53.104;8.228;2023-07-09T04:49:38;10.10;;;9.10;;
3343;SDS011;1685;53.104;8.228;2023-07-09T04:52:07;13.27;;;9.70;;
3343;SDS011;1685;53.104;8.228;2023-07-09T04:54:36;11.10;;;9.97;;
3343;SDS011;1685;53.104;8.228;2023-07-09T04:57:03;11.40;;;10.10;;
3343;SDS011;1685;53.104;8.228;2023-07-09T04:59:31;10.40;;;9.30;;
3343;SDS011;1685;53.104;8.228;2023-07-09T05:01:59;12.10;;;10.60;;
3343;SDS011;1685;53.104;8.228;2023-07-09T05:04:26;10.03;;;9.10;;
3343;SDS011;1685;53.104;8.228;2023-07-09T05:06:53;9.87;;;8.97;;
3343;SDS011;1685;53.104;8.228;2023-07-09T05:09:20;12.43;;;10.87;;
3343;SDS011;1685;53.104;8.228;2023-07-09T05:11:48;10.93;;;9.87;;
3343;SDS011;1685;53.104;8.228;2023-07-09T05:14:16;12.00;;;10.80;;
3343;SDS011;1685;53.104;8.228;2023-07-09T05:16:43;14.80;;;10.03;;
3343;SDS011;1685;53.104;8.228;2023-07-09T05:19:11;13.30;;;10.40;;
3343;SDS011;1685;53.104;8.228;2023-07-09T05:21:38;10.70;;;9.60;;
3343;SDS011;1685;53.104;8.228;2023-07-09T05:24:05;12.03;;;10.80;;
3343;SDS011;1685;53.104;8.228;2023-07-09T05:26:33;12.03;;;9.47;;
3343;SDS011;1685;53.104;8.228;2023-07-09T05:29:01;13.70;;;10.47;;
3343;SDS011;1685;53.104;8.228;2023-07-09T05:31:29;11.00;;;9.90;;
3343;SDS011;1685;53.104;8.228;2023-07-09T05:33:56;13.03;;;9.00;;
3343;SDS011;1685;53.104;8.228;2023-07-09T05:36:25;12.03;;;10.83;;
3343;SDS011;1685;53.104;8.228;2023-07-09T05:38:52;12.03;;;10.03;;
3343;SDS011;1685;53.104;8.228;2023-07-09T05:41:20;10.30;;;9.27;;
3343;SDS011;1685;53.104;8.228;2023-07-09T05:43:49;9.97;;;8.97;;
3343;SDS011;1685;53.104;8.228;2023-07-09T05:46:16;12.87;;;10.33;;
3343;SDS011;1685;53.104;8.228;2023-07-09T05:48:43;15.20;;;9.50;;
3343;SDS011;1685;53.104;8.228;2023-07-09T05:51:10;9.87;;;8.97;;
3343;SDS011;1685;53.104;8.228;2023-07-09T05:53:39;14.70;;;8.67;;
3343;SDS011;1685;53.104;8.228;2023-07-09T05:56:05;10.50;;;8.07;;
3343;SDS011;1685;53.104;8.228;2023-07-09T05:58:33;11.33;;;9.70;;
3343;SDS011;1685;53.104;8.228;2023-07-09T06:01:00;10.17;;;8.80;;
3343;SDS011;1685;53.104;8.228;2023-07-09T06:03:28;10.47;;;8.67;;
3343;SDS011;1685;53.104;8.228;2023-07-09T06:05:55;9.57;;;8.67;;
3343;SDS011;1685;53.104;8.228;2023-07-09T06:08:23;9.80;;;8.37;;
3343;SDS011;1685;53.104;8.228;2023-07-09T06:10:56;10.00;;;9.00;;
3343;SDS011;1685;53.104;8.228;2023-07-09T06:13:24;9.50;;;8.10;;
3343;SDS011;1685;53.104;8.228;2023-07-09T06:15:52;9.80;;;8.80;;
3343;SDS011;1685;53.104;8.228;2023-07-09T06:18:20;8.77;;;7.90;;
3343;SDS011;1685;53.104;8.228;2023-07-09T06:20:48;9.40;;;8.40;;
3343;SDS011;1685;53.104;8.228;2023-07-09T06:23:15;11.90;;;9.00;;
3343;SDS011;1685;53.104;8.228;2023-07-09T06:25:43;8.70;;;7.90;;
3343;SDS011;1685;53.104;8.228;2023-07-09T06:28:14;12.93;;;8.43;;
3343;SDS011;1685;53.104;8.228;2023-07-09T06:30:41;10.43;;;8.97;;
3343;SDS011;1685;53.104;8.228;2023-07-09T06:33:08;9.00;;;8.10;;
3343;SDS011;1685;53.104;8.228;2023-07-09T06:35:35;11.93;;;8.20;;
3343;SDS011;1685;53.104;8.228;2023-07-09T06:38:02;8.60;;;7.80;;
3343;SDS011;1685;53.104;8.228;2023-07-09T06:40:29;9.73;;;8.53;;
3343;SDS011;1685;53.104;8.228;2023-07-09T06:42:56;8.80;;;7.83;;
3343;SDS011;1685;53.104;8.228;2023-07-09T06:45:25;9.47;;;8.03;;
3343;SDS011;1685;53.104;8.228;2023-07-09T06:47:52;12.27;;;8.97;;
3343;SDS011;1685;53.104;8.228;2023-07-09T06:50:19;14.93;;;8.10;;
3343;SDS011;1685;53.104;8.228;2023-07-09T06:52:46;9.47;;;8.10;;
3343;SDS011;1685;53.104;8.228;2023-07-09T06:55:13;9.90;;;8.70;;
3343;SDS011;1685;53.104;8.228;2023-07-09T06:57:40;9.30;;;8.20;;
3343;SDS011;1685;53.104;8.228;2023-07-09T07:00:08;9.90;;;7.77;;
3343;SDS011;1685;53.104;8.228;2023-07-09T07:02:36;9.40;;;8.23;;
3343;SDS011;1685;53.104;8.228;2023-07-09T07:05:03;7.87;;;7.07;;
3343;SDS011;1685;53.104;8.228;2023-07-09T07:07:31;8.30;;;7.43;;
3343;SDS011;1685;53.104;8.228;2023-07-09T07:09:58;11.13;;;7.50;;
3343;SDS011;1685;53.104;8.228;2023-07-09T07:12:26;9.90;;;7.90;;
3343;SDS011;1685;53.104;8.228;2023-07-09T07:14:54;10.23;;;7.60;;
3343;SDS011;1685;53.104;8.228;2023-07-09T07:17:21;16.63;;;8.13;;
3343;SDS011;1685;53.104;8.228;2023-07-09T07:19:50;11.70;;;7.33;;
3343;SDS011;1685;53.104;8.228;2023-07-09T07:22:17;9.40;;;8.30;;
3343;SDS011;1685;53.104;8.228;2023-07-09T07:24:44;8.63;;;7.73;;
3343;SDS011;1685;53.104;8.228;2023-07-09T07:27:11;8.03;;;7.23;;
3343;SDS011;1685;53.104;8.228;2023-07-09T07:29:39;10.00;;;7.53;;
3343;SDS011;1685;53.104;8.228;2023-07-09T07:32:06;8.83;;;7.80;;
3343;SDS011;1685;53.104;8.228;2023-07-09T07:34:34;8.37;;;7.57;;
3343;SDS011;1685;53.104;8.228;2023-07-09T07:37:02;8.60;;;7.80;;
3343;SDS011;1685;53.104;8.228;2023-07-09T07:39:29;8.03;;;7.23;;
3343;SDS011;1685;53.104;8.228;2023-07-09T07:41:57;7.13;;;6.37;;
3343;SDS011;1685;53.104;8.228;2023-07-09T07:44:24;8.93;;;7.33;;
3343;SDS011;1685;53.104;8.228;2023-07-09T07:46:51;7.00;;;6.40;;
3343;SDS011;1685;53.104;8.228;2023-07-09T07:49:18;8.13;;;6.43;;
3343;SDS011;1685;53.104;8.228;2023-07-09T07:51:45;10.73;;;7.00;;
3343;SDS011;1685;53.104;8.228;2023-07-09T07:54:14;7.20;;;6.50;;
3343;SDS011;1685;53.104;8.228;2023-07-09T07:56:43;7.40;;;6.70;;
3343;SDS011;1685;53.104;8.228;2023-07-09T07:59:10;7.20;;;6.40;;
3343;SDS011;1685;53.104;8.228;2023-07-09T08:01:38;7.27;;;6.57;;
3343;SDS011;1685;53.104;8.228;2023-07-09T08:04:05;7.20;;;6.50;;
3343;SDS011;1685;53.104;8.228;2023-07-09T08:06:32;7.40;;;6.80;;
3343;SDS011;1685;53.104;8.228;2023-07-09T08:08:59;10.00;;;6.47;;
3343;SDS011;1685;53.104;8.228;2023-07-09T08:11:27;7.23;;;6.40;;
3343;SDS011;1685;53.104;8.228;2023-07-09T08:13:57;8.83;;;7.03;;
3343;SDS011;1685;53.104;8.228;2023-07-09T08:16:24;9.10;;;6.87;;
3343;SDS011;1685;53.104;8.228;2023-07-09T08:18:51;9.13;;;6.27;;
3343;SDS011;1685;53.104;8.228;2023-07-09T08:21:19;8.20;;;6.57;;
3343;SDS011;1685;53.104;8.228;2023-07-09T08:23:46;8.90;;;6.80;;
3343;SDS011;1685;53.104;8.228;2023-07-09T08:26:13;8.83;;;6.40;;
3343;SDS011;1685;53.104;8.228;2023-07-09T08:28:42;7.50;;;6.80;;
3343;SDS011;1685;53.104;8.228;2023-07-09T08:31:08;7.63;;;6.30;;
3343;SDS011;1685;53.104;8.228;2023-07-09T08:33:36;7.10;;;6.50;;
3343;SDS011;1685;53.104;8.228;2023-07-09T08:36:03;5.90;;;5.50;;
3343;SDS011;1685;53.104;8.228;2023-07-09T08:38:30;10.23;;;7.03;;
3343;SDS011;1685;53.104;8.228;2023-07-09T08:40:59;8.30;;;6.03;;
3343;SDS011;1685;53.104;8.228;2023-07-09T08:43:34;7.97;;;5.83;;
3343;SDS011;1685;53.104;8.228;2023-07-09T08:46:10;6.70;;;6.00;;
3343;SDS011;1685;53.104;8.228;2023-07-09T08:48:44;7.80;;;6.00;;
3343;SDS011;1685;53.104;8.228;2023-07-09T08:51:14;7.60;;;7.00;;
3343;SDS011;1685;53.104;8.228;2023-07-09T08:53:45;6.50;;;5.90;;
3343;SDS011;1685;53.104;8.228;2023-07-09T08:56:16;7.57;;;6.47;;
3343;SDS011;1685;53.104;8.228;2023-07-09T08:58:44;6.60;;;6.10;;
3343;SDS011;1685;53.104;8.228;2023-07-09T09:01:17;8.27;;;6.13;;
3343;SDS011;1685;53.104;8.228;2023-07-09T09:03:47;7.23;;;6.00;;
3343;SDS011;1685;53.104;8.228;2023-07-09T09:06:17;10.80;;;6.27;;
3343;SDS011;1685;53.104;8.228;2023-07-09T09:08:47;5.90;;;5.40;;
3343;SDS011;1685;53.104;8.228;2023-07-09T09:11:23;21.93;;;6.33;;
3343;SDS011;1685;53.104;8.228;2023-07-09T09:13:59;6.80;;;6.17;;
3343;SDS011;1685;53.104;8.228;2023-07-09T09:16:33;7.37;;;5.87;;
3343;SDS011;1685;53.104;8.228;2023-07-09T09:19:08;6.00;;;5.50;;
3343;SDS011;1685;53.104;8.228;2023-07-09T09:21:46;6.43;;;5.80;;
3343;SDS011;1685;53.104;8.228;2023-07-09T09:24:17;6.90;;;6.17;;
3343;SDS011;1685;53.104;8.228;2023-07-09T09:26:49;8.00;;;6.67;;
3343;SDS011;1685;53.104;8.228;2023-07-09T09:29:19;5.43;;;5.03;;
3343;SDS011;1685;53.104;8.228;2023-07-09T09:31:48;8.80;;;6.10;;
3343;SDS011;1685;53.104;8.228;2023-07-09T09:34:20;6.87;;;6.17;;
3343;SDS011;1685;53.104;8.228;2023-07-09T09:36:48;6.00;;;5.57;;
3343;SDS011;1685;53.104;8.228;2023-07-09T09:39:16;7.10;;;6.00;;
3343;SDS011;1685;53.104;8.228;2023-07-09T09:41:43;6.20;;;5.60;;
3343;SDS011;1685;53.104;8.228;2023-07-09T09:44:17;7.67;;;6.37;;
3343;SDS011;1685;53.104;8.228;2023-07-09T09:46:47;7.00;;;6.00;;
3343;SDS011;1685;53.104;8.228;2023-07-09T09:49:14;6.23;;;5.73;;
3343;SDS011;1685;53.104;8.228;2023-07-09T09:51:42;11.93;;;6.33;;
3343;SDS011;1685;53.104;8.228;2023-07-09T09:54:13;12.50;;;6.13;;
3343;SDS011;1685;53.104;8.228;2023-07-09T09:56:43;6.30;;;5.80;;
3343;SDS011;1685;53.104;8.228;2023-07-09T09:59:16;6.90;;;6.27;;
3343;SDS011;1685;53.104;8.228;2023-07-09T10:01:47;9.50;;;6.00;;
3343;SDS011;1685;53.104;8.228;2023-07-09T10:04:23;7.20;;;5.63;;
3343;SDS011;1685;53.104;8.228;2023-07-09T10:06:51;6.77;;;6.17;;
3343;SDS011;1685;53.104;8.228;2023-07-09T10:09:24;6.10;;;5.60;;
3343;SDS011;1685;53.104;8.228;2023-07-09T10:12:00;7.73;;;5.97;;
3343;SDS011;1685;53.104;8.228;2023-07-09T10:14:37;6.23;;;5.70;;
3343;SDS011;1685;53.104;8.228;2023-07-09T10:17:17;7.87;;;6.30;;
3343;SDS011;1685;53.104;8.228;2023-07-09T10:19:48;6.30;;;5.70;;
3343;SDS011;1685;53.104;8.228;2023-07-09T10:22:24;9.33;;;5.90;;
3343;SDS011;1685;53.104;8.228;2023-07-09T10:25:03;6.80;;;6.20;;
3343;SDS011;1685;53.104;8.228;2023-07-09T10:27:43;6.70;;;6.07;;
3343;SDS011;1685;53.104;8.228;2023-07-09T10:30:29;6.40;;;5.80;;
3343;SDS011;1685;53.104;8.228;2023-07-09T10:33:08;5.97;;;5.37;;
3343;SDS011;1685;53.104;8.228;2023-07-09T10:35:37;6.00;;;5.50;;
3343;SDS011;1685;53.104;8.228;2023-07-09T10:38:24;5.73;;;5.07;;
3343;SDS011;1685;53.104;8.228;2023-07-09T10:40:59;7.40;;;5.30;;
3343;SDS011;1685;53.104;8.228;2023-07-09T10:43:32;8.70;;;6.30;;
3343;SDS011;1685;53.104;8.228;2023-07-09T10:46:03;6.17;;;5.57;;
3343;SDS011;1685;53.104;8.228;2023-07-09T10:48:39;6.27;;;5.07;;
3343;SDS011;1685;53.104;8.228;2023-07-09T10:51:10;5.67;;;5.07;;
3343;SDS011;1685;53.104;8.228;2023-07-09T10:53:43;8.03;;;4.83;;
3343;SDS011;1685;53.104;8.228;2023-07-09T10:56:14;7.50;;;5.60;;
3343;SDS011;1685;53.104;8.228;2023-07-09T10:58:46;5.30;;;4.80;;
3343;SDS011;1685;53.104;8.228;2023-07-09T11:01:21;5.93;;;5.10;;
3343;SDS011;1685;53.104;8.228;2023-07-09T11:03:59;5.80;;;5.30;;
3343;SDS011;1685;53.104;8.228;2023-07-09T11:06:28;5.00;;;4.50;;
3343;SDS011;1685;53.104;8.228;2023-07-09T11:08:59;5.93;;;5.40;;
3343;SDS011;1685;53.104;8.228;2023-07-09T11:11:31;8.40;;;5.53;;
3343;SDS011;1685;53.104;8.228;2023-07-09T11:14:02;6.30;;;5.70;;
3343;SDS011;1685;53.104;8.228;2023-07-09T11:16:36;6.13;;;5.47;;
3343;SDS011;1685;53.104;8.228;2023-07-09T11:19:13;6.17;;;4.97;;
3343;SDS011;1685;53.104;8.228;2023-07-09T11:21:44;5.70;;;5.20;;
3343;SDS011;1685;53.104;8.228;2023-07-09T11:24:29;6.00;;;5.47;;
3343;SDS011;1685;53.104;8.228;2023-07-09T11:26:58;6.37;;;5.53;;
3343;SDS011;1685;53.104;8.228;2023-07-09T11:29:26;5.30;;;4.80;;
3343;SDS011;1685;53.104;8.228;2023-07-09T11:31:54;7.20;;;4.90;;
3343;SDS011;1685;53.104;8.228;2023-07-09T11:34:28;6.07;;;5.53;;
3343;SDS011;1685;53.104;8.228;2023-07-09T11:36:57;8.80;;;5.00;;
3343;SDS011;1685;53.104;8.228;2023-07-09T11:39:27;6.30;;;5.70;;
3343;SDS011;1685;53.104;8.228;2023-07-09T11:41:57;6.20;;;4.87;;
3343;SDS011;1685;53.104;8.228;2023-07-09T11:44:25;6.70;;;5.40;;
3343;SDS011;1685;53.104;8.228;2023-07-09T11:46:57;5.60;;;5.07;;
3343;SDS011;1685;53.104;8.228;2023-07-09T11:49:42;8.20;;;5.17;;
3343;SDS011;1685;53.104;8.228;2023-07-09T11:52:17;5.77;;;5.27;;
3343;SDS011;1685;53.104;8.228;2023-07-09T11:54:50;6.27;;;5.67;;
3343;SDS011;1685;53.104;8.228;2023-07-09T11:57:18;7.13;;;5.47;;
3343;SDS011;1685;53.104;8.228;2023-07-09T11:59:45;9.23;;;6.07;;
3343;SDS011;1685;53.104;8.228;2023-07-09T12:02:14;7.87;;;6.00;;
3343;SDS011;1685;53.104;8.228;2023-07-09T12:04:44;5.33;;;4.83;;
3343;SDS011;1685;53.104;8.228;2023-07-09T12:07:14;5.57;;;5.10;;
3343;SDS011;1685;53.104;8.228;2023-07-09T12:09:43;6.60;;;5.03;;
3343;SDS011;1685;53.104;8.228;2023-07-09T12:12:16;6.60;;;6.00;;
3343;SDS011;1685;53.104;8.228;2023-07-09T12:14:45;6.70;;;5.67;;
3343;SDS011;1685;53.104;8.228;2023-07-09T12:17:12;5.73;;;5.10;;
3343;SDS011;1685;53.104;8.228;2023-07-09T12:19:39;7.33;;;5.37;;
3343;SDS011;1685;53.104;8.228;2023-07-09T12:22:11;5.87;;;5.37;;
3343;SDS011;1685;53.104;8.228;2023-07-09T12:24:44;5.50;;;5.10;;
3343;SDS011;1685;53.104;8.228;2023-07-09T12:27:20;5.83;;;5.23;;
3343;SDS011;1685;53.104;8.228;2023-07-09T12:29:50;5.73;;;5.30;;
3343;SDS011;1685;53.104;8.228;2023-07-09T12:32:18;7.50;;;5.37;;
3343;SDS011;1685;53.104;8.228;2023-07-09T12:34:49;7.43;;;5.30;;
3343;SDS011;1685;53.104;8.228;2023-07-09T12:37:18;5.63;;;5.13;;
3343;SDS011;1685;53.104;8.228;2023-07-09T12:39:48;6.10;;;5.40;;
3343;SDS011;1685;53.104;8.228;2023-07-09T12:42:18;5.73;;;5.23;;
3343;SDS011;1685;53.104;8.228;2023-07-09T12:44:46;5.60;;;5.10;;
3343;SDS011;1685;53.104;8.228;2023-07-09T12:47:15;6.53;;;5.47;;
3343;SDS011;1685;53.104;8.228;2023-07-09T12:49:42;5.87;;;5.30;;
3343;SDS011;1685;53.104;8.228;2023-07-09T12:52:12;6.40;;;5.80;;
3343;SDS011;1685;53.104;8.228;2023-07-09T12:54:50;5.80;;;5.30;;
3343;SDS011;1685;53.104;8.228;2023-07-09T12:57:18;6.70;;;6.03;;
3343;SDS011;1685;53.104;8.228;2023-07-09T12:59:45;7.67;;;5.10;;
3343;SDS011;1685;53.104;8.228;2023-07-09T13:02:14;5.50;;;5.00;;
3343;SDS011;1685;53.104;8.228;2023-07-09T13:04:43;9.57;;;6.30;;
3343;SDS011;1685;53.104;8.228;2023-07-09T13:07:25;6.30;;;5.70;;
3343;SDS011;1685;53.104;8.228;2023-07-09T13:09:55;6.80;;;6.20;;
3343;SDS011;1685;53.104;8.228;2023-07-09T13:12:28;7.00;;;5.80;;
3343;SDS011;1685;53.104;8.228;2023-07-09T13:14:56;12.57;;;5.43;;
3343;SDS011;1685;53.104;8.228;2023-07-09T13:17:27;6.83;;;5.50;;
3343;SDS011;1685;53.104;8.228;2023-07-09T13:19:55;6.30;;;5.70;;
3343;SDS011;1685;53.104;8.228;2023-07-09T13:22:22;6.63;;;6.00;;
3343;SDS011;1685;53.104;8.228;2023-07-09T13:24:49;6.60;;;5.90;;
3343;SDS011;1685;53.104;8.228;2023-07-09T13:27:18;7.97;;;6.20;;
3343;SDS011;1685;53.104;8.228;2023-07-09T13:29:45;8.70;;;6.30;;
3343;SDS011;1685;53.104;8.228;2023-07-09T13:32:13;6.43;;;5.83;;
3343;SDS011;1685;53.104;8.228;2023-07-09T13:34:41;7.43;;;5.57;;
3343;SDS011;1685;53.104;8.228;2023-07-09T13:37:09;6.37;;;5.77;;
3343;SDS011;1685;53.104;8.228;2023-07-09T13:39:38;6.97;;;6.27;;
3343;SDS011;1685;53.104;8.228;2023-07-09T13:42:08;6.90;;;5.50;;
3343;SDS011;1685;53.104;8.228;2023-07-09T13:44:39;7.43;;;5.60;;
3343;SDS011;1685;53.104;8.228;2023-07-09T13:47:10;8.17;;;5.80;;
3343;SDS011;1685;53.104;8.228;2023-07-09T13:49:39;8.43;;;4.90;;
3343;SDS011;1685;53.104;8.228;2023-07-09T13:52:08;5.50;;;5.00;;
3343;SDS011;1685;53.104;8.228;2023-07-09T13:54:40;7.33;;;5.63;;
3343;SDS011;1685;53.104;8.228;2023-07-09T13:57:10;7.30;;;4.73;;
3343;SDS011;1685;53.104;8.228;2023-07-09T13:59:42;5.60;;;5.03;;
3343;SDS011;1685;53.104;8.228;2023-07-09T14:02:16;5.10;;;4.50;;
3343;SDS011;1685;53.104;8.228;2023-07-09T14:04:48;9.77;;;5.03;;
3343;SDS011;1685;53.104;8.228;2023-07-09T14:07:20;4.87;;;4.47;;
3343;SDS011;1685;53.104;8.228;2023-07-09T14:09:51;5.73;;;5.17;;
3343;SDS011;1685;53.104;8.228;2023-07-09T14:12:18;6.73;;;5.10;;
3343;SDS011;1685;53.104;8.228;2023-07-09T14:14:46;9.20;;;7.33;;
3343;SDS011;1685;53.104;8.228;2023-07-09T14:17:15;5.67;;;5.07;;
3343;SDS011;1685;53.104;8.228;2023-07-09T14:19:42;6.43;;;5.40;;
3343;SDS011;1685;53.104;8.228;2023-07-09T14:22:15;5.27;;;4.77;;
3343;SDS011;1685;53.104;8.228;2023-07-09T14:24:47;5.80;;;5.30;;
3343;SDS011;1685;53.104;8.228;2023-07-09T14:27:14;9.73;;;5.43;;
3343;SDS011;1685;53.104;8.228;2023-07-09T14:29:41;6.37;;;5.10;;
3343;SDS011;1685;53.104;8.228;2023-07-09T14:32:13;5.73;;;5.23;;
3343;SDS011;1685;53.104;8.228;2023-07-09T14:34:58;6.47;;;4.90;;
3343;SDS011;1685;53.104;8.228;2023-07-09T14:37:25;9.47;;;6.27;;
3343;SDS011;1685;53.104;8.228;2023-07-09T14:39:52;6.50;;;5.03;;
3343;SDS011;1685;53.104;8.228;2023-07-09T14:42:19;11.83;;;5.20;;
3343;SDS011;1685;53.104;8.228;2023-07-09T14:44:48;10.80;;;5.30;;
3343;SDS011;1685;53.104;8.228;2023-07-09T14:47:17;5.63;;;5.07;;
3343;SDS011;1685;53.104;8.228;2023-07-09T14:49:45;10.97;;;5.23;;
3343;SDS011;1685;53.104;8.228;2023-07-09T14:52:13;6.13;;;5.27;;
3343;SDS011;1685;53.104;8.228;2023-07-09T14:54:42;4.97;;;4.60;;
3343;SDS011;1685;53.104;8.228;2023-07-09T14:57:15;8.37;;;5.70;;
3343;SDS011;1685;53.104;8.228;2023-07-09T14:59:44;12.83;;;5.83;;
3343;SDS011;1685;53.104;8.228;2023-07-09T15:02:19;7.50;;;5.80;;
3343;SDS011;1685;53.104;8.228;2023-07-09T15:04:48;6.90;;;4.90;;
3343;SDS011;1685;53.104;8.228;2023-07-09T15:07:15;5.83;;;5.13;;
3343;SDS011;1685;53.104;8.228;2023-07-09T15:09:42;5.80;;;5.17;;
3343;SDS011;1685;53.104;8.228;2023-07-09T15:12:13;5.97;;;5.43;;
3343;SDS011;1685;53.104;8.228;2023-07-09T15:14:43;7.30;;;5.67;;
3343;SDS011;1685;53.104;8.228;2023-07-09T15:17:10;6.03;;;4.80;;
3343;SDS011;1685;53.104;8.228;2023-07-09T15:19:39;10.30;;;5.37;;
3343;SDS011;1685;53.104;8.228;2023-07-09T15:22:10;6.90;;;5.10;;
3343;SDS011;1685;53.104;8.228;2023-07-09T15:24:45;5.20;;;4.50;;
3343;SDS011;1685;53.104;8.228;2023-07-09T15:27:13;5.17;;;4.67;;
3343;SDS011;1685;53.104;8.228;2023-07-09T15:29:40;7.17;;;5.33;;